sensor_id;sensor_type;location;lat;lon;timestamp;P1;durP1;ratioP1;P2;durP2;ratioP2
66487;SDS011;53304;54.550;18.526;2024-03-02T00:00:44;11.65;;;7.38;;
66487;SDS011;53304;54.550;18.526;2024-03-02T00:03:12;10.68;;;7.38;;
66487;SDS011;53304;54.550;18.526;2024-03-02T00:05:39;12.63;;;7.57;;
66487;SDS011;53304;54.550;18.526;2024-03-02T00:08:05;13.90;;;7.97;;
66487;SDS011;53304;54.550;18.526;2024-03-02T00:10:36;12.25;;;7.05;;
66487;SDS011;53304;54.550;18.526;2024-03-02T00:13:05;12.85;;;7.18;;
66487;SDS011;53304;54.550;18.526;2024-03-02T00:18:14;11.55;;;7.28;;
66487;SDS011;53304;54.550;18.526;2024-03-02T00:20:41;12.13;;;7.43;;
66487;SDS011;53304;54.550;18.526;2024-03-02T00:23:07;11.93;;;7.40;;
66487;SDS011;53304;54.550;18.526;2024-03-02T00:28:17;11.52;;;6.93;;
66487;SDS011;53304;54.550;18.526;2024-03-02T00:33:53;11.70;;;7.55;;
66487;SDS011;53304;54.550;18.526;2024-03-02T00:36:24;12.25;;;7.70;;
66487;SDS011;53304;54.550;18.526;2024-03-02T00:38:52;13.35;;;8.32;;
66487;SDS011;53304;54.550;18.526;2024-03-02T00:46:33;12.57;;;7.53;;
66487;SDS011;53304;54.550;18.526;2024-03-02T00:51:36;12.43;;;7.55;;
66487;SDS011;53304;54.550;18.526;2024-03-02T00:54:05;11.43;;;7.03;;
66487;SDS011;53304;54.550;18.526;2024-03-02T00:56:33;11.30;;;7.40;;
66487;SDS011;53304;54.550;18.526;2024-03-02T00:59:02;12.77;;;7.93;;
66487;SDS011;53304;54.550;18.526;2024-03-02T01:01:27;12.50;;;7.90;;
66487;SDS011;53304;54.550;18.526;2024-03-02T01:03:55;13.90;;;7.78;;
66487;SDS011;53304;54.550;18.526;2024-03-02T01:06:21;11.27;;;7.40;;
66487;SDS011;53304;54.550;18.526;2024-03-02T01:08:47;12.30;;;7.18;;
66487;SDS011;53304;54.550;18.526;2024-03-02T01:11:16;13.95;;;8.02;;
66487;SDS011;53304;54.550;18.526;2024-03-02T01:13:45;16.20;;;8.23;;
66487;SDS011;53304;54.550;18.526;2024-03-02T01:16:11;11.98;;;7.10;;
66487;SDS011;53304;54.550;18.526;2024-03-02T01:18:41;12.60;;;7.18;;
66487;SDS011;53304;54.550;18.526;2024-03-02T01:21:07;14.32;;;8.20;;
66487;SDS011;53304;54.550;18.526;2024-03-02T01:23:33;13.10;;;7.60;;
66487;SDS011;53304;54.550;18.526;2024-03-02T01:25:58;14.13;;;8.25;;
66487;SDS011;53304;54.550;18.526;2024-03-02T01:28:24;13.25;;;7.78;;
66487;SDS011;53304;54.550;18.526;2024-03-02T01:30:54;13.50;;;7.30;;
66487;SDS011;53304;54.550;18.526;2024-03-02T01:33:19;12.43;;;8.30;;
66487;SDS011;53304;54.550;18.526;2024-03-02T01:35:46;13.35;;;8.05;;
66487;SDS011;53304;54.550;18.526;2024-03-02T01:38:12;14.40;;;7.88;;
66487;SDS011;53304;54.550;18.526;2024-03-02T01:40:37;13.13;;;7.85;;
66487;SDS011;53304;54.550;18.526;2024-03-02T01:43:06;13.52;;;7.75;;
66487;SDS011;53304;54.550;18.526;2024-03-02T01:45:35;12.07;;;7.68;;
66487;SDS011;53304;54.550;18.526;2024-03-02T01:48:01;13.05;;;8.20;;
66487;SDS011;53304;54.550;18.526;2024-03-02T01:50:27;14.18;;;8.82;;
66487;SDS011;53304;54.550;18.526;2024-03-02T01:52:55;14.13;;;8.13;;
66487;SDS011;53304;54.550;18.526;2024-03-02T01:55:24;11.43;;;7.25;;
66487;SDS011;53304;54.550;18.526;2024-03-02T01:57:51;11.75;;;7.53;;
66487;SDS011;53304;54.550;18.526;2024-03-02T02:00:18;14.20;;;7.72;;
66487;SDS011;53304;54.550;18.526;2024-03-02T02:02:44;12.27;;;7.95;;
66487;SDS011;53304;54.550;18.526;2024-03-02T02:05:11;12.35;;;8.00;;
66487;SDS011;53304;54.550;18.526;2024-03-02T02:07:37;12.43;;;7.45;;
66487;SDS011;53304;54.550;18.526;2024-03-02T02:10:03;13.82;;;7.45;;
66487;SDS011;53304;54.550;18.526;2024-03-02T02:12:31;12.82;;;8.20;;
66487;SDS011;53304;54.550;18.526;2024-03-02T02:14:59;11.45;;;7.78;;
66487;SDS011;53304;54.550;18.526;2024-03-02T02:17:24;12.25;;;7.53;;
66487;SDS011;53304;54.550;18.526;2024-03-02T02:19:50;11.00;;;7.38;;
66487;SDS011;53304;54.550;18.526;2024-03-02T02:22:15;12.32;;;7.75;;
66487;SDS011;53304;54.550;18.526;2024-03-02T02:24:43;12.52;;;7.43;;
66487;SDS011;53304;54.550;18.526;2024-03-02T02:27:09;13.57;;;8.35;;
66487;SDS011;53304;54.550;18.526;2024-03-02T02:29:35;14.68;;;8.07;;
66487;SDS011;53304;54.550;18.526;2024-03-02T02:32:01;12.32;;;7.80;;
66487;SDS011;53304;54.550;18.526;2024-03-02T02:34:29;13.05;;;8.43;;
66487;SDS011;53304;54.550;18.526;2024-03-02T02:36:54;11.10;;;7.25;;
66487;SDS011;53304;54.550;18.526;2024-03-02T02:39:20;12.80;;;8.10;;
66487;SDS011;53304;54.550;18.526;2024-03-02T02:41:49;12.55;;;7.95;;
66487;SDS011;53304;54.550;18.526;2024-03-02T02:44:17;12.77;;;7.78;;
66487;SDS011;53304;54.550;18.526;2024-03-02T02:46:45;12.32;;;8.02;;
66487;SDS011;53304;54.550;18.526;2024-03-02T02:49:10;12.27;;;7.32;;
66487;SDS011;53304;54.550;18.526;2024-03-02T02:51:35;11.52;;;6.90;;
66487;SDS011;53304;54.550;18.526;2024-03-02T02:54:01;13.82;;;8.10;;
66487;SDS011;53304;54.550;18.526;2024-03-02T02:56:26;13.68;;;8.07;;
66487;SDS011;53304;54.550;18.526;2024-03-02T02:58:52;13.88;;;7.85;;
66487;SDS011;53304;54.550;18.526;2024-03-02T03:01:17;13.88;;;8.20;;
66487;SDS011;53304;54.550;18.526;2024-03-02T03:03:43;13.63;;;8.45;;
66487;SDS011;53304;54.550;18.526;2024-03-02T03:06:09;11.52;;;7.40;;
66487;SDS011;53304;54.550;18.526;2024-03-02T03:08:35;12.10;;;7.68;;
66487;SDS011;53304;54.550;18.526;2024-03-02T03:11:00;13.45;;;8.30;;
66487;SDS011;53304;54.550;18.526;2024-03-02T03:13:26;12.95;;;7.85;;
66487;SDS011;53304;54.550;18.526;2024-03-02T03:15:51;12.07;;;7.50;;
66487;SDS011;53304;54.550;18.526;2024-03-02T03:18:20;14.90;;;8.13;;
66487;SDS011;53304;54.550;18.526;2024-03-02T03:20:45;12.95;;;8.30;;
66487;SDS011;53304;54.550;18.526;2024-03-02T03:23:11;12.30;;;7.95;;
66487;SDS011;53304;54.550;18.526;2024-03-02T03:25:42;13.30;;;8.32;;
66487;SDS011;53304;54.550;18.526;2024-03-02T03:28:08;11.75;;;7.47;;
66487;SDS011;53304;54.550;18.526;2024-03-02T03:30:37;14.15;;;7.78;;
66487;SDS011;53304;54.550;18.526;2024-03-02T03:33:08;11.57;;;7.38;;
66487;SDS011;53304;54.550;18.526;2024-03-02T03:35:36;12.27;;;7.40;;
66487;SDS011;53304;54.550;18.526;2024-03-02T03:38:02;12.45;;;7.95;;
66487;SDS011;53304;54.550;18.526;2024-03-02T03:40:27;13.18;;;8.13;;
66487;SDS011;53304;54.550;18.526;2024-03-02T03:42:53;12.77;;;7.53;;
66487;SDS011;53304;54.550;18.526;2024-03-02T03:45:21;12.63;;;7.72;;
66487;SDS011;53304;54.550;18.526;2024-03-02T03:47:49;12.63;;;7.97;;
66487;SDS011;53304;54.550;18.526;2024-03-02T03:50:17;11.93;;;8.15;;
66487;SDS011;53304;54.550;18.526;2024-03-02T03:52:42;13.05;;;7.72;;
66487;SDS011;53304;54.550;18.526;2024-03-02T03:55:08;13.45;;;8.07;;
66487;SDS011;53304;54.550;18.526;2024-03-02T03:57:37;12.05;;;8.02;;
66487;SDS011;53304;54.550;18.526;2024-03-02T04:00:03;12.90;;;8.05;;
66487;SDS011;53304;54.550;18.526;2024-03-02T04:02:31;12.77;;;8.00;;
66487;SDS011;53304;54.550;18.526;2024-03-02T04:04:57;12.82;;;8.20;;
66487;SDS011;53304;54.550;18.526;2024-03-02T04:07:22;13.93;;;7.75;;
66487;SDS011;53304;54.550;18.526;2024-03-02T04:09:50;14.80;;;7.97;;
66487;SDS011;53304;54.550;18.526;2024-03-02T04:12:15;13.18;;;7.90;;
66487;SDS011;53304;54.550;18.526;2024-03-02T04:14:41;11.75;;;7.90;;
66487;SDS011;53304;54.550;18.526;2024-03-02T04:17:07;12.80;;;7.85;;
66487;SDS011;53304;54.550;18.526;2024-03-02T04:19:32;14.15;;;7.97;;
66487;SDS011;53304;54.550;18.526;2024-03-02T04:21:59;13.65;;;8.07;;
66487;SDS011;53304;54.550;18.526;2024-03-02T04:24:29;12.30;;;7.88;;
66487;SDS011;53304;54.550;18.526;2024-03-02T04:26:55;12.88;;;8.10;;
66487;SDS011;53304;54.550;18.526;2024-03-02T04:29:20;13.98;;;8.32;;
66487;SDS011;53304;54.550;18.526;2024-03-02T04:31:46;11.82;;;8.23;;
66487;SDS011;53304;54.550;18.526;2024-03-02T04:34:11;12.85;;;7.97;;
66487;SDS011;53304;54.550;18.526;2024-03-02T04:36:36;14.18;;;8.23;;
66487;SDS011;53304;54.550;18.526;2024-03-02T04:39:04;12.52;;;8.10;;
66487;SDS011;53304;54.550;18.526;2024-03-02T04:41:29;12.98;;;8.15;;
66487;SDS011;53304;54.550;18.526;2024-03-02T04:43:57;12.05;;;8.02;;
66487;SDS011;53304;54.550;18.526;2024-03-02T04:46:25;12.18;;;7.97;;
66487;SDS011;53304;54.550;18.526;2024-03-02T04:48:51;11.27;;;7.80;;
66487;SDS011;53304;54.550;18.526;2024-03-02T04:51:24;13.27;;;8.18;;
66487;SDS011;53304;54.550;18.526;2024-03-02T04:53:49;12.05;;;8.10;;
66487;SDS011;53304;54.550;18.526;2024-03-02T04:56:17;12.60;;;7.78;;
66487;SDS011;53304;54.550;18.526;2024-03-02T04:59:02;13.57;;;8.25;;
66487;SDS011;53304;54.550;18.526;2024-03-02T05:01:29;14.35;;;8.40;;
66487;SDS011;53304;54.550;18.526;2024-03-02T05:03:58;12.63;;;8.07;;
66487;SDS011;53304;54.550;18.526;2024-03-02T05:06:26;13.68;;;8.48;;
66487;SDS011;53304;54.550;18.526;2024-03-02T05:08:51;13.85;;;8.13;;
66487;SDS011;53304;54.550;18.526;2024-03-02T05:11:17;12.85;;;7.60;;
66487;SDS011;53304;54.550;18.526;2024-03-02T05:14:14;14.10;;;8.27;;
66487;SDS011;53304;54.550;18.526;2024-03-02T05:16:40;12.77;;;7.70;;
66487;SDS011;53304;54.550;18.526;2024-03-02T05:19:06;12.90;;;7.97;;
66487;SDS011;53304;54.550;18.526;2024-03-02T05:21:33;13.85;;;7.88;;
66487;SDS011;53304;54.550;18.526;2024-03-02T05:23:58;12.55;;;8.73;;
66487;SDS011;53304;54.550;18.526;2024-03-02T05:26:27;11.27;;;7.50;;
66487;SDS011;53304;54.550;18.526;2024-03-02T05:28:52;14.13;;;8.32;;
66487;SDS011;53304;54.550;18.526;2024-03-02T05:31:18;11.85;;;7.82;;
66487;SDS011;53304;54.550;18.526;2024-03-02T05:33:43;12.75;;;8.32;;
66487;SDS011;53304;54.550;18.526;2024-03-02T05:36:09;12.35;;;8.27;;
66487;SDS011;53304;54.550;18.526;2024-03-02T05:38:34;15.07;;;8.20;;
66487;SDS011;53304;54.550;18.526;2024-03-02T05:41:00;12.73;;;7.97;;
66487;SDS011;53304;54.550;18.526;2024-03-02T05:43:26;11.98;;;8.20;;
66487;SDS011;53304;54.550;18.526;2024-03-02T05:45:54;14.48;;;7.97;;
66487;SDS011;53304;54.550;18.526;2024-03-02T05:48:19;12.02;;;7.97;;
66487;SDS011;53304;54.550;18.526;2024-03-02T05:50:47;13.50;;;8.38;;
66487;SDS011;53304;54.550;18.526;2024-03-02T05:53:12;14.95;;;8.30;;
66487;SDS011;53304;54.550;18.526;2024-03-02T05:55:40;12.02;;;7.75;;
66487;SDS011;53304;54.550;18.526;2024-03-02T05:58:08;11.48;;;7.93;;
66487;SDS011;53304;54.550;18.526;2024-03-02T06:00:50;15.13;;;8.60;;
66487;SDS011;53304;54.550;18.526;2024-03-02T06:03:16;14.15;;;8.15;;
66487;SDS011;53304;54.550;18.526;2024-03-02T06:05:44;12.65;;;7.55;;
66487;SDS011;53304;54.550;18.526;2024-03-02T06:08:12;14.73;;;8.85;;
66487;SDS011;53304;54.550;18.526;2024-03-02T06:10:37;13.32;;;8.27;;
66487;SDS011;53304;54.550;18.526;2024-03-02T06:13:02;12.90;;;7.93;;
66487;SDS011;53304;54.550;18.526;2024-03-02T06:15:30;12.23;;;7.50;;
66487;SDS011;53304;54.550;18.526;2024-03-02T06:17:58;12.40;;;7.55;;
66487;SDS011;53304;54.550;18.526;2024-03-02T06:20:26;12.60;;;7.43;;
66487;SDS011;53304;54.550;18.526;2024-03-02T06:22:55;12.95;;;8.02;;
66487;SDS011;53304;54.550;18.526;2024-03-02T06:25:21;11.43;;;7.03;;
66487;SDS011;53304;54.550;18.526;2024-03-02T06:27:46;10.32;;;7.05;;
66487;SDS011;53304;54.550;18.526;2024-03-02T06:30:12;13.23;;;7.72;;
66487;SDS011;53304;54.550;18.526;2024-03-02T06:32:37;13.27;;;7.80;;
66487;SDS011;53304;54.550;18.526;2024-03-02T06:35:03;11.18;;;6.85;;
66487;SDS011;53304;54.550;18.526;2024-03-02T06:37:34;10.73;;;7.00;;
66487;SDS011;53304;54.550;18.526;2024-03-02T06:40:00;11.63;;;7.38;;
66487;SDS011;53304;54.550;18.526;2024-03-02T06:42:26;11.80;;;7.50;;
66487;SDS011;53304;54.550;18.526;2024-03-02T06:44:51;10.30;;;6.88;;
66487;SDS011;53304;54.550;18.526;2024-03-02T06:47:17;10.88;;;6.70;;
66487;SDS011;53304;54.550;18.526;2024-03-02T06:49:42;10.60;;;7.20;;
66487;SDS011;53304;54.550;18.526;2024-03-02T06:52:08;10.23;;;6.75;;
66487;SDS011;53304;54.550;18.526;2024-03-02T06:54:33;11.52;;;7.18;;
66487;SDS011;53304;54.550;18.526;2024-03-02T06:57:00;10.90;;;7.55;;
66487;SDS011;53304;54.550;18.526;2024-03-02T06:59:25;10.52;;;6.82;;
66487;SDS011;53304;54.550;18.526;2024-03-02T07:01:50;10.32;;;6.68;;
66487;SDS011;53304;54.550;18.526;2024-03-02T07:04:18;10.15;;;6.60;;
66487;SDS011;53304;54.550;18.526;2024-03-02T07:06:44;10.50;;;6.63;;
66487;SDS011;53304;54.550;18.526;2024-03-02T07:09:09;10.98;;;6.82;;
66487;SDS011;53304;54.550;18.526;2024-03-02T07:11:36;11.13;;;7.22;;
66487;SDS011;53304;54.550;18.526;2024-03-02T07:14:01;10.60;;;6.65;;
66487;SDS011;53304;54.550;18.526;2024-03-02T07:16:29;11.70;;;6.80;;
66487;SDS011;53304;54.550;18.526;2024-03-02T07:18:57;10.18;;;6.75;;
66487;SDS011;53304;54.550;18.526;2024-03-02T07:21:24;12.55;;;6.78;;
66487;SDS011;53304;54.550;18.526;2024-03-02T07:23:49;12.40;;;7.10;;
66487;SDS011;53304;54.550;18.526;2024-03-02T07:26:15;10.73;;;7.03;;
66487;SDS011;53304;54.550;18.526;2024-03-02T07:28:41;10.55;;;6.80;;
66487;SDS011;53304;54.550;18.526;2024-03-02T07:31:07;12.73;;;7.30;;
66487;SDS011;53304;54.550;18.526;2024-03-02T07:33:32;9.90;;;6.57;;
66487;SDS011;53304;54.550;18.526;2024-03-02T07:35:58;10.95;;;7.00;;
66487;SDS011;53304;54.550;18.526;2024-03-02T07:38:27;11.30;;;6.70;;
66487;SDS011;53304;54.550;18.526;2024-03-02T07:40:56;12.40;;;7.38;;
66487;SDS011;53304;54.550;18.526;2024-03-02T07:43:24;12.45;;;7.65;;
66487;SDS011;53304;54.550;18.526;2024-03-02T07:45:51;11.52;;;7.30;;
66487;SDS011;53304;54.550;18.526;2024-03-02T07:48:17;11.60;;;7.47;;
66487;SDS011;53304;54.550;18.526;2024-03-02T07:50:45;11.05;;;7.00;;
66487;SDS011;53304;54.550;18.526;2024-03-02T07:53:13;11.43;;;6.90;;
66487;SDS011;53304;54.550;18.526;2024-03-02T07:55:40;9.70;;;6.53;;
66487;SDS011;53304;54.550;18.526;2024-03-02T07:58:06;11.65;;;6.60;;
66487;SDS011;53304;54.550;18.526;2024-03-02T08:00:32;11.75;;;7.75;;
66487;SDS011;53304;54.550;18.526;2024-03-02T08:03:00;11.27;;;7.35;;
66487;SDS011;53304;54.550;18.526;2024-03-02T08:05:28;11.88;;;7.18;;
66487;SDS011;53304;54.550;18.526;2024-03-02T08:07:53;10.00;;;6.72;;
66487;SDS011;53304;54.550;18.526;2024-03-02T08:10:19;10.05;;;6.57;;
66487;SDS011;53304;54.550;18.526;2024-03-02T08:12:45;11.73;;;7.03;;
66487;SDS011;53304;54.550;18.526;2024-03-02T08:15:13;11.80;;;6.90;;
66487;SDS011;53304;54.550;18.526;2024-03-02T08:17:41;12.88;;;7.20;;
66487;SDS011;53304;54.550;18.526;2024-03-02T08:20:14;11.85;;;6.97;;
66487;SDS011;53304;54.550;18.526;2024-03-02T08:22:42;12.90;;;7.65;;
66487;SDS011;53304;54.550;18.526;2024-03-02T08:25:07;10.00;;;6.80;;
66487;SDS011;53304;54.550;18.526;2024-03-02T08:27:33;11.45;;;7.30;;
66487;SDS011;53304;54.550;18.526;2024-03-02T08:30:01;12.57;;;7.40;;
66487;SDS011;53304;54.550;18.526;2024-03-02T08:32:34;12.02;;;7.10;;
66487;SDS011;53304;54.550;18.526;2024-03-02T08:35:02;12.00;;;7.35;;
66487;SDS011;53304;54.550;18.526;2024-03-02T08:37:27;12.68;;;7.28;;
66487;SDS011;53304;54.550;18.526;2024-03-02T08:39:53;19.85;;;7.40;;
66487;SDS011;53304;54.550;18.526;2024-03-02T08:42:21;13.48;;;7.55;;
66487;SDS011;53304;54.550;18.526;2024-03-02T08:44:47;12.15;;;7.55;;
66487;SDS011;53304;54.550;18.526;2024-03-02T08:47:12;15.07;;;7.25;;
66487;SDS011;53304;54.550;18.526;2024-03-02T08:49:38;11.05;;;7.38;;
66487;SDS011;53304;54.550;18.526;2024-03-02T08:52:06;16.35;;;8.02;;
66487;SDS011;53304;54.550;18.526;2024-03-02T08:54:35;13.98;;;7.63;;
66487;SDS011;53304;54.550;18.526;2024-03-02T08:57:03;14.80;;;8.15;;
66487;SDS011;53304;54.550;18.526;2024-03-02T08:59:28;11.68;;;7.07;;
66487;SDS011;53304;54.550;18.526;2024-03-02T09:01:56;15.70;;;8.05;;
66487;SDS011;53304;54.550;18.526;2024-03-02T09:04:22;13.40;;;8.48;;
66487;SDS011;53304;54.550;18.526;2024-03-02T09:06:50;13.40;;;7.70;;
66487;SDS011;53304;54.550;18.526;2024-03-02T09:09:15;12.25;;;8.35;;
66487;SDS011;53304;54.550;18.526;2024-03-02T09:11:40;14.82;;;8.73;;
66487;SDS011;53304;54.550;18.526;2024-03-02T09:14:06;14.02;;;8.50;;
66487;SDS011;53304;54.550;18.526;2024-03-02T09:16:31;13.95;;;9.00;;
66487;SDS011;53304;54.550;18.526;2024-03-02T09:18:57;12.85;;;8.05;;
66487;SDS011;53304;54.550;18.526;2024-03-02T09:21:28;13.50;;;8.65;;
66487;SDS011;53304;54.550;18.526;2024-03-02T09:23:55;15.80;;;8.90;;
66487;SDS011;53304;54.550;18.526;2024-03-02T09:26:23;12.95;;;8.23;;
66487;SDS011;53304;54.550;18.526;2024-03-02T09:28:50;15.40;;;9.30;;
66487;SDS011;53304;54.550;18.526;2024-03-02T09:31:19;15.18;;;9.10;;
66487;SDS011;53304;54.550;18.526;2024-03-02T09:33:45;16.30;;;9.30;;
66487;SDS011;53304;54.550;18.526;2024-03-02T09:36:17;12.15;;;8.30;;
66487;SDS011;53304;54.550;18.526;2024-03-02T09:38:48;15.32;;;9.13;;
66487;SDS011;53304;54.550;18.526;2024-03-02T09:41:16;13.27;;;9.02;;
66487;SDS011;53304;54.550;18.526;2024-03-02T09:43:41;15.32;;;8.70;;
66487;SDS011;53304;54.550;18.526;2024-03-02T09:46:09;14.38;;;8.88;;
66487;SDS011;53304;54.550;18.526;2024-03-02T09:48:35;14.73;;;8.88;;
66487;SDS011;53304;54.550;18.526;2024-03-02T09:51:03;14.57;;;9.32;;
66487;SDS011;53304;54.550;18.526;2024-03-02T09:53:31;13.82;;;8.85;;
66487;SDS011;53304;54.550;18.526;2024-03-02T09:55:59;15.68;;;9.63;;
66487;SDS011;53304;54.550;18.526;2024-03-02T09:58:25;14.77;;;8.95;;
66487;SDS011;53304;54.550;18.526;2024-03-02T10:00:55;12.80;;;8.60;;
66487;SDS011;53304;54.550;18.526;2024-03-02T10:03:23;15.88;;;8.48;;
66487;SDS011;53304;54.550;18.526;2024-03-02T10:05:51;17.10;;;9.20;;
66487;SDS011;53304;54.550;18.526;2024-03-02T10:08:17;13.70;;;9.23;;
66487;SDS011;53304;54.550;18.526;2024-03-02T10:10:45;13.95;;;8.65;;
66487;SDS011;53304;54.550;18.526;2024-03-02T10:13:11;14.40;;;9.40;;
66487;SDS011;53304;54.550;18.526;2024-03-02T10:15:38;13.45;;;8.45;;
66487;SDS011;53304;54.550;18.526;2024-03-02T10:18:10;16.02;;;9.35;;
66487;SDS011;53304;54.550;18.526;2024-03-02T10:20:38;14.02;;;9.05;;
66487;SDS011;53304;54.550;18.526;2024-03-02T10:25:37;14.10;;;8.52;;
66487;SDS011;53304;54.550;18.526;2024-03-02T10:28:02;13.23;;;8.70;;
66487;SDS011;53304;54.550;18.526;2024-03-02T10:30:33;16.15;;;9.38;;
66487;SDS011;53304;54.550;18.526;2024-03-02T10:32:59;14.63;;;9.30;;
66487;SDS011;53304;54.550;18.526;2024-03-02T10:35:27;12.40;;;7.80;;
66487;SDS011;53304;54.550;18.526;2024-03-02T10:37:53;14.25;;;9.30;;
66487;SDS011;53304;54.550;18.526;2024-03-02T10:40:22;15.65;;;9.20;;
66487;SDS011;53304;54.550;18.526;2024-03-02T10:42:50;14.95;;;9.50;;
66487;SDS011;53304;54.550;18.526;2024-03-02T10:45:17;14.27;;;9.07;;
66487;SDS011;53304;54.550;18.526;2024-03-02T10:47:44;15.38;;;9.27;;
66487;SDS011;53304;54.550;18.526;2024-03-02T10:50:11;13.88;;;8.80;;
66487;SDS011;53304;54.550;18.526;2024-03-02T10:52:37;14.75;;;9.23;;
66487;SDS011;53304;54.550;18.526;2024-03-02T10:55:09;19.92;;;9.98;;
66487;SDS011;53304;54.550;18.526;2024-03-02T10:57:53;14.65;;;9.35;;
66487;SDS011;53304;54.550;18.526;2024-03-02T11:00:24;14.40;;;9.52;;
66487;SDS011;53304;54.550;18.526;2024-03-02T11:03:02;15.75;;;9.13;;
66487;SDS011;53304;54.550;18.526;2024-03-02T11:05:36;13.10;;;8.80;;
66487;SDS011;53304;54.550;18.526;2024-03-02T11:08:02;13.82;;;9.13;;
66487;SDS011;53304;54.550;18.526;2024-03-02T11:10:40;16.10;;;9.30;;
66487;SDS011;53304;54.550;18.526;2024-03-02T11:13:11;26.02;;;9.98;;
66487;SDS011;53304;54.550;18.526;2024-03-02T11:15:37;16.38;;;9.95;;
66487;SDS011;53304;54.550;18.526;2024-03-02T11:18:05;18.08;;;9.88;;
66487;SDS011;53304;54.550;18.526;2024-03-02T11:20:37;18.88;;;9.80;;
66487;SDS011;53304;54.550;18.526;2024-03-02T11:23:09;15.05;;;9.73;;
66487;SDS011;53304;54.550;18.526;2024-03-02T11:25:35;16.27;;;9.45;;
66487;SDS011;53304;54.550;18.526;2024-03-02T11:28:05;14.13;;;9.43;;
66487;SDS011;53304;54.550;18.526;2024-03-02T11:32:56;15.35;;;9.55;;
66487;SDS011;53304;54.550;18.526;2024-03-02T11:35:23;15.23;;;9.02;;
66487;SDS011;53304;54.550;18.526;2024-03-02T11:37:50;14.32;;;9.05;;
66487;SDS011;53304;54.550;18.526;2024-03-02T11:40:22;14.13;;;9.05;;
66487;SDS011;53304;54.550;18.526;2024-03-02T11:42:48;15.32;;;9.43;;
66487;SDS011;53304;54.550;18.526;2024-03-02T11:45:17;15.50;;;9.18;;
66487;SDS011;53304;54.550;18.526;2024-03-02T11:47:46;14.88;;;9.55;;
66487;SDS011;53304;54.550;18.526;2024-03-02T11:50:30;19.55;;;9.65;;
66487;SDS011;53304;54.550;18.526;2024-03-02T11:53:02;17.85;;;9.73;;
66487;SDS011;53304;54.550;18.526;2024-03-02T11:55:31;17.38;;;9.40;;
66487;SDS011;53304;54.550;18.526;2024-03-02T11:57:56;16.70;;;9.35;;
66487;SDS011;53304;54.550;18.526;2024-03-02T12:00:22;15.18;;;9.43;;
66487;SDS011;53304;54.550;18.526;2024-03-02T12:03:12;14.45;;;9.45;;
66487;SDS011;53304;54.550;18.526;2024-03-02T12:05:37;16.52;;;9.40;;
66487;SDS011;53304;54.550;18.526;2024-03-02T12:08:06;18.08;;;9.52;;
66487;SDS011;53304;54.550;18.526;2024-03-02T12:10:32;16.52;;;9.93;;
66487;SDS011;53304;54.550;18.526;2024-03-02T12:12:59;14.68;;;9.52;;
66487;SDS011;53304;54.550;18.526;2024-03-02T12:15:29;15.05;;;9.32;;
66487;SDS011;53304;54.550;18.526;2024-03-02T12:17:58;15.80;;;9.52;;
66487;SDS011;53304;54.550;18.526;2024-03-02T12:20:27;15.13;;;9.60;;
66487;SDS011;53304;54.550;18.526;2024-03-02T12:22:55;14.05;;;9.48;;
66487;SDS011;53304;54.550;18.526;2024-03-02T12:25:24;16.63;;;9.38;;
66487;SDS011;53304;54.550;18.526;2024-03-02T12:27:53;14.07;;;8.73;;
66487;SDS011;53304;54.550;18.526;2024-03-02T12:30:21;14.30;;;8.52;;
66487;SDS011;53304;54.550;18.526;2024-03-02T12:32:47;15.35;;;9.00;;
66487;SDS011;53304;54.550;18.526;2024-03-02T12:35:18;15.30;;;9.38;;
66487;SDS011;53304;54.550;18.526;2024-03-02T12:37:49;13.95;;;8.82;;
66487;SDS011;53304;54.550;18.526;2024-03-02T12:40:20;12.00;;;8.18;;
66487;SDS011;53304;54.550;18.526;2024-03-02T12:42:48;13.75;;;8.30;;
66487;SDS011;53304;54.550;18.526;2024-03-02T12:45:14;14.23;;;8.43;;
66487;SDS011;53304;54.550;18.526;2024-03-02T12:47:41;14.35;;;8.82;;
66487;SDS011;53304;54.550;18.526;2024-03-02T12:50:07;12.70;;;8.50;;
66487;SDS011;53304;54.550;18.526;2024-03-02T12:52:33;14.15;;;8.38;;
66487;SDS011;53304;54.550;18.526;2024-03-02T12:55:03;15.10;;;9.10;;
66487;SDS011;53304;54.550;18.526;2024-03-02T12:57:32;14.80;;;8.68;;
66487;SDS011;53304;54.550;18.526;2024-03-02T12:59:58;16.15;;;9.20;;
66487;SDS011;53304;54.550;18.526;2024-03-02T13:02:27;12.88;;;8.50;;
66487;SDS011;53304;54.550;18.526;2024-03-02T13:04:53;14.75;;;8.75;;
66487;SDS011;53304;54.550;18.526;2024-03-02T13:07:24;13.60;;;9.27;;
66487;SDS011;53304;54.550;18.526;2024-03-02T13:09:56;13.90;;;9.20;;
66487;SDS011;53304;54.550;18.526;2024-03-02T13:12:22;13.95;;;8.82;;
66487;SDS011;53304;54.550;18.526;2024-03-02T13:14:52;13.68;;;8.65;;
66487;SDS011;53304;54.550;18.526;2024-03-02T13:17:20;13.07;;;8.80;;
66487;SDS011;53304;54.550;18.526;2024-03-02T13:19:58;14.10;;;9.27;;
66487;SDS011;53304;54.550;18.526;2024-03-02T13:22:24;13.25;;;8.88;;
66487;SDS011;53304;54.550;18.526;2024-03-02T13:24:53;14.40;;;9.30;;
66487;SDS011;53304;54.550;18.526;2024-03-02T13:27:22;13.55;;;9.15;;
66487;SDS011;53304;54.550;18.526;2024-03-02T13:29:48;12.82;;;8.70;;
66487;SDS011;53304;54.550;18.526;2024-03-02T13:32:17;13.50;;;8.52;;
66487;SDS011;53304;54.550;18.526;2024-03-02T13:34:45;14.90;;;9.07;;
66487;SDS011;53304;54.550;18.526;2024-03-02T13:37:11;14.88;;;9.43;;
66487;SDS011;53304;54.550;18.526;2024-03-02T13:39:36;17.27;;;8.95;;
66487;SDS011;53304;54.550;18.526;2024-03-02T13:42:09;13.05;;;9.30;;
66487;SDS011;53304;54.550;18.526;2024-03-02T13:44:39;13.60;;;8.50;;
66487;SDS011;53304;54.550;18.526;2024-03-02T13:47:07;14.40;;;9.20;;
66487;SDS011;53304;54.550;18.526;2024-03-02T13:49:37;13.50;;;8.90;;
66487;SDS011;53304;54.550;18.526;2024-03-02T13:52:06;12.73;;;8.65;;
66487;SDS011;53304;54.550;18.526;2024-03-02T13:54:44;12.57;;;8.73;;
66487;SDS011;53304;54.550;18.526;2024-03-02T13:57:10;15.02;;;9.25;;
66487;SDS011;53304;54.550;18.526;2024-03-02T13:59:41;13.88;;;8.73;;
66487;SDS011;53304;54.550;18.526;2024-03-02T14:02:07;14.98;;;8.65;;
66487;SDS011;53304;54.550;18.526;2024-03-02T14:04:36;12.45;;;8.63;;
66487;SDS011;53304;54.550;18.526;2024-03-02T14:07:06;15.00;;;9.48;;
66487;SDS011;53304;54.550;18.526;2024-03-02T14:09:35;12.80;;;9.02;;
66487;SDS011;53304;54.550;18.526;2024-03-02T14:12:04;12.02;;;8.80;;
66487;SDS011;53304;54.550;18.526;2024-03-02T14:14:30;13.52;;;8.70;;
66487;SDS011;53304;54.550;18.526;2024-03-02T14:16:57;14.10;;;8.90;;
66487;SDS011;53304;54.550;18.526;2024-03-02T14:19:28;13.48;;;9.30;;
66487;SDS011;53304;54.550;18.526;2024-03-02T14:21:53;14.10;;;8.85;;
66487;SDS011;53304;54.550;18.526;2024-03-02T14:24:19;12.30;;;9.02;;
66487;SDS011;53304;54.550;18.526;2024-03-02T14:26:48;13.68;;;8.93;;
66487;SDS011;53304;54.550;18.526;2024-03-02T14:29:16;12.98;;;8.60;;
66487;SDS011;53304;54.550;18.526;2024-03-02T14:31:43;13.38;;;8.95;;
66487;SDS011;53304;54.550;18.526;2024-03-02T14:34:09;15.20;;;9.23;;
66487;SDS011;53304;54.550;18.526;2024-03-02T14:36:39;15.57;;;9.38;;
66487;SDS011;53304;54.550;18.526;2024-03-02T14:39:04;13.32;;;8.27;;
66487;SDS011;53304;54.550;18.526;2024-03-02T14:41:34;14.50;;;8.82;;
66487;SDS011;53304;54.550;18.526;2024-03-02T14:43:59;13.20;;;8.25;;